This is the latest recevied weather packets stored in our database for station/object VE7KNL-13. If no packets are shown the sender has not sent any weather packets the latest 10 day(s).
| Time | Temp. | Humidity | Pressure | Rain* | Wind** | Luminosity | Snow |
|---|---|---|---|---|---|---|---|
| 1777371616 | 0° C | 88% | 1011.5 hPa | 0 mm | - | - | - |
| 1777371016 | 0.56° C | 88% | 1011.5 hPa | 0 mm | - | - | - |
| 1777367416 | 1.11° C | 85% | 1011.1 hPa | 0 mm | - | - | - |
| 1777366216 | 1.11° C | 85% | 1011.1 hPa | 0 mm | - | - | - |
| 1777363816 | 2.22° C | 83% | 1010.9 hPa | 0 mm | - | - | - |
| 1777362616 | 2.22° C | 82% | 1010.5 hPa | 0 mm | - | - | - |
| 1777357817 | 3.89° C | 77% | 1009.9 hPa | 0 mm | - | - | - |
| 1777355437 | 5.56° C | 73% | 1009.3 hPa | 0 mm | - | - | - |
| 1777350617 | 8.33° C | 66% | 1008.5 hPa | 0 mm | - | - | - |
| 1777350017 | 8.33° C | 65% | 1008.1 hPa | 0 mm | - | - | - |
| 1777344037 | 12.78° C | 42% | 1006.6 hPa | 0 mm | - | - | - |
| 1777342217 | 14.44° C | 41% | 1006.4 hPa | 0 mm | - | - | - |
| 1777339817 | 15° C | 35% | 1006.1 hPa | 0 mm | - | - | - |
| 1777338017 | 15.56° C | 29% | 1006.1 hPa | 0 mm | - | - | - |
| 1777333817 | 17.22° C | 26% | 1006.4 hPa | 0 mm | - | - | - |
| 1777327816 | 15.56° C | 28% | 1007.1 hPa | 0 mm | - | - | - |
| 1777326016 | 15° C | 29% | 1007.4 hPa | 0 mm | - | - | - |
| 1777322438 | 13.89° C | 33% | 1007.7 hPa | 0 mm | - | - | - |
| 1777320018 | 13.33° C | 37% | 1008 hPa | 0 mm | - | - | - |
| 1777318818 | 13.33° C | 37% | 1007.9 hPa | 0 mm | - | - | - |
| 1777314018 | 12.22° C | 42% | 1008.7 hPa | 0 mm | - | - | - |
| 1777310417 | 9.44° C | 51% | 1009 hPa | 0 mm | - | - | - |
| 1777301417 | 2.78° C | 81% | 1010 hPa | 0 mm | - | - | - |
| 1777300817 | 2.78° C | 82% | 1010 hPa | 0 mm | - | - | - |
| 1777297217 | 0° C | 88% | 1009.6 hPa | 0 mm | - | - | - |
* Rain latest hour (hover to see other rain measurements)
** Current wind speed in m/s (hover to see current wind gust speed)